sensor_id;sensor_type;location;lat;lon;timestamp;temperature;humidity
45969;DHT22;31676;40.444;-3.668;2022-09-14T00:00:16;28.10;71.40
45969;DHT22;31676;40.444;-3.668;2022-09-14T00:02:41;28.10;71.40
45969;DHT22;31676;40.444;-3.668;2022-09-14T00:05:07;28.10;71.40
45969;DHT22;31676;40.444;-3.668;2022-09-14T00:07:33;28.10;71.40
45969;DHT22;31676;40.444;-3.668;2022-09-14T00:09:59;28.10;71.40
45969;DHT22;31676;40.444;-3.668;2022-09-14T00:12:24;28.10;71.40
45969;DHT22;31676;40.444;-3.668;2022-09-14T00:14:50;28.10;71.40
45969;DHT22;31676;40.444;-3.668;2022-09-14T00:17:16;28.10;71.40
45969;DHT22;31676;40.444;-3.668;2022-09-14T00:19:42;28.10;71.40
45969;DHT22;31676;40.444;-3.668;2022-09-14T00:22:08;28.10;71.40
45969;DHT22;31676;40.444;-3.668;2022-09-14T00:24:33;28.10;71.40
45969;DHT22;31676;40.444;-3.668;2022-09-14T00:26:59;28.10;71.40
45969;DHT22;31676;40.444;-3.668;2022-09-14T00:29:27;28.10;71.40
45969;DHT22;31676;40.444;-3.668;2022-09-14T00:31:53;28.10;71.40
45969;DHT22;31676;40.444;-3.668;2022-09-14T00:34:18;28.10;71.50
45969;DHT22;31676;40.444;-3.668;2022-09-14T00:36:45;28.10;72.10
45969;DHT22;31676;40.444;-3.668;2022-09-14T00:39:12;28.10;71.40
45969;DHT22;31676;40.444;-3.668;2022-09-14T00:41:38;28.10;71.40
45969;DHT22;31676;40.444;-3.668;2022-09-14T00:46:41;28.10;71.40
45969;DHT22;31676;40.444;-3.668;2022-09-14T00:49:14;28.10;71.40
45969;DHT22;31676;40.444;-3.668;2022-09-14T00:51:47;28.10;71.40
45969;DHT22;31676;40.444;-3.668;2022-09-14T00:54:14;28.10;71.40
45969;DHT22;31676;40.444;-3.668;2022-09-14T00:56:39;28.10;71.40
45969;DHT22;31676;40.444;-3.668;2022-09-14T00:59:10;28.10;71.40
45969;DHT22;31676;40.444;-3.668;2022-09-14T01:01:37;28.10;71.50
45969;DHT22;31676;40.444;-3.668;2022-09-14T01:04:03;28.10;71.40
45969;DHT22;31676;40.444;-3.668;2022-09-14T01:19:54;28.10;71.40
45969;DHT22;31676;40.444;-3.668;2022-09-14T01:22:25;28.10;71.50
45969;DHT22;31676;40.444;-3.668;2022-09-14T01:25:02;28.10;71.50
45969;DHT22;31676;40.444;-3.668;2022-09-14T06:06:34;27.80;71.40
45969;DHT22;31676;40.444;-3.668;2022-09-14T06:09:00;27.80;71.40
45969;DHT22;31676;40.444;-3.668;2022-09-14T06:11:30;27.80;71.40
45969;DHT22;31676;40.444;-3.668;2022-09-14T06:13:56;27.80;71.50
45969;DHT22;31676;40.444;-3.668;2022-09-14T06:16:23;27.70;71.30
45969;DHT22;31676;40.444;-3.668;2022-09-14T06:18:49;27.70;71.40
45969;DHT22;31676;40.444;-3.668;2022-09-14T06:21:16;27.70;71.40
45969;DHT22;31676;40.444;-3.668;2022-09-14T06:23:43;27.80;71.40
45969;DHT22;31676;40.444;-3.668;2022-09-14T06:26:09;27.70;71.40
45969;DHT22;31676;40.444;-3.668;2022-09-14T06:28:35;27.70;71.40
45969;DHT22;31676;40.444;-3.668;2022-09-14T06:31:01;27.70;71.40
45969;DHT22;31676;40.444;-3.668;2022-09-14T06:33:29;27.70;71.40
45969;DHT22;31676;40.444;-3.668;2022-09-14T06:35:55;27.70;71.40
45969;DHT22;31676;40.444;-3.668;2022-09-14T06:38:21;27.70;71.40
45969;DHT22;31676;40.444;-3.668;2022-09-14T06:40:51;27.70;71.40
45969;DHT22;31676;40.444;-3.668;2022-09-14T06:43:16;27.70;71.50
45969;DHT22;31676;40.444;-3.668;2022-09-14T06:45:42;27.60;71.40
45969;DHT22;31676;40.444;-3.668;2022-09-14T06:48:08;27.60;71.40
45969;DHT22;31676;40.444;-3.668;2022-09-14T06:50:33;27.60;71.40
45969;DHT22;31676;40.444;-3.668;2022-09-14T06:52:59;27.60;71.40
45969;DHT22;31676;40.444;-3.668;2022-09-14T06:55:25;27.60;71.40
45969;DHT22;31676;40.444;-3.668;2022-09-14T06:57:51;27.60;71.50
45969;DHT22;31676;40.444;-3.668;2022-09-14T07:00:17;27.60;71.50
45969;DHT22;31676;40.444;-3.668;2022-09-14T07:02:43;27.60;71.50
45969;DHT22;31676;40.444;-3.668;2022-09-14T07:05:11;27.60;71.50
45969;DHT22;31676;40.444;-3.668;2022-09-14T07:07:38;27.50;71.40
45969;DHT22;31676;40.444;-3.668;2022-09-14T07:10:04;27.50;71.50
45969;DHT22;31676;40.444;-3.668;2022-09-14T07:12:29;27.60;71.50
45969;DHT22;31676;40.444;-3.668;2022-09-14T07:14:55;27.50;71.50
45969;DHT22;31676;40.444;-3.668;2022-09-14T07:17:21;27.50;71.50
45969;DHT22;31676;40.444;-3.668;2022-09-14T07:19:46;27.50;71.50
45969;DHT22;31676;40.444;-3.668;2022-09-14T07:22:12;27.50;71.50
45969;DHT22;31676;40.444;-3.668;2022-09-14T07:24:38;27.50;71.50
45969;DHT22;31676;40.444;-3.668;2022-09-14T07:27:03;27.50;71.50
45969;DHT22;31676;40.444;-3.668;2022-09-14T07:29:29;27.50;71.60
45969;DHT22;31676;40.444;-3.668;2022-09-14T07:31:55;27.40;71.50
45969;DHT22;31676;40.444;-3.668;2022-09-14T07:34:20;27.50;71.60
45969;DHT22;31676;40.444;-3.668;2022-09-14T07:36:47;27.40;71.50
45969;DHT22;31676;40.444;-3.668;2022-09-14T07:39:14;27.40;71.50
45969;DHT22;31676;40.444;-3.668;2022-09-14T07:41:40;27.40;71.50
45969;DHT22;31676;40.444;-3.668;2022-09-14T07:44:08;27.40;71.50
45969;DHT22;31676;40.444;-3.668;2022-09-14T07:46:38;27.40;71.60
45969;DHT22;31676;40.444;-3.668;2022-09-14T07:49:04;27.40;71.60
45969;DHT22;31676;40.444;-3.668;2022-09-14T07:51:30;27.40;71.60
45969;DHT22;31676;40.444;-3.668;2022-09-14T07:53:57;27.40;71.60
45969;DHT22;31676;40.444;-3.668;2022-09-14T07:56:24;27.40;71.60
45969;DHT22;31676;40.444;-3.668;2022-09-14T07:58:53;27.30;71.60
45969;DHT22;31676;40.444;-3.668;2022-09-14T08:01:20;27.40;72.30
45969;DHT22;31676;40.444;-3.668;2022-09-14T08:03:46;27.30;71.60
45969;DHT22;31676;40.444;-3.668;2022-09-14T08:08:39;27.30;71.60
45969;DHT22;31676;40.444;-3.668;2022-09-14T08:11:10;27.30;71.60
45969;DHT22;31676;40.444;-3.668;2022-09-14T08:13:36;27.30;71.60
45969;DHT22;31676;40.444;-3.668;2022-09-14T08:16:02;27.30;71.60
45969;DHT22;31676;40.444;-3.668;2022-09-14T08:18:28;27.30;71.60
45969;DHT22;31676;40.444;-3.668;2022-09-14T08:20:54;27.30;71.60
45969;DHT22;31676;40.444;-3.668;2022-09-14T08:23:20;27.30;71.60
45969;DHT22;31676;40.444;-3.668;2022-09-14T08:25:46;27.30;71.60
45969;DHT22;31676;40.444;-3.668;2022-09-14T08:28:12;27.30;71.60
45969;DHT22;31676;40.444;-3.668;2022-09-14T08:30:37;27.20;71.60
45969;DHT22;31676;40.444;-3.668;2022-09-14T08:33:03;27.20;71.60
45969;DHT22;31676;40.444;-3.668;2022-09-14T08:35:29;27.20;71.50
45969;DHT22;31676;40.444;-3.668;2022-09-14T08:37:54;27.20;71.50
45969;DHT22;31676;40.444;-3.668;2022-09-14T08:40:20;27.20;71.60
45969;DHT22;31676;40.444;-3.668;2022-09-14T08:42:46;27.20;71.60
45969;DHT22;31676;40.444;-3.668;2022-09-14T08:45:12;27.20;71.60
45969;DHT22;31676;40.444;-3.668;2022-09-14T08:47:41;27.20;71.60
45969;DHT22;31676;40.444;-3.668;2022-09-14T08:58:29;27.20;71.70
45969;DHT22;31676;40.444;-3.668;2022-09-14T09:00:42;27.10;71.60
45969;DHT22;31676;40.444;-3.668;2022-09-14T09:03:18;27.10;71.60
45969;DHT22;31676;40.444;-3.668;2022-09-14T09:08:32;27.10;71.70
45969;DHT22;31676;40.444;-3.668;2022-09-14T09:11:00;27.10;71.60
45969;DHT22;31676;40.444;-3.668;2022-09-14T09:13:28;27.10;71.60
45969;DHT22;31676;40.444;-3.668;2022-09-14T09:15:59;27.10;71.60
45969;DHT22;31676;40.444;-3.668;2022-09-14T09:18:35;27.10;71.60
45969;DHT22;31676;40.444;-3.668;2022-09-14T09:21:23;27.10;71.60
45969;DHT22;31676;40.444;-3.668;2022-09-14T09:23:47;27.10;71.50
45969;DHT22;31676;40.444;-3.668;2022-09-14T09:26:24;27.10;71.50
45969;DHT22;31676;40.444;-3.668;2022-09-14T09:28:52;27.10;71.50
45969;DHT22;31676;40.444;-3.668;2022-09-14T09:31:20;27.10;71.50
45969;DHT22;31676;40.444;-3.668;2022-09-14T09:33:48;27.10;71.50
45969;DHT22;31676;40.444;-3.668;2022-09-14T09:36:15;27.10;71.50
45969;DHT22;31676;40.444;-3.668;2022-09-14T09:38:41;27.10;71.50
45969;DHT22;31676;40.444;-3.668;2022-09-14T09:41:20;27.10;72.10
45969;DHT22;31676;40.444;-3.668;2022-09-14T09:44:03;27.10;71.50
45969;DHT22;31676;40.444;-3.668;2022-09-14T09:46:32;27.10;71.50
45969;DHT22;31676;40.444;-3.668;2022-09-14T09:49:01;27.10;71.50
45969;DHT22;31676;40.444;-3.668;2022-09-14T09:51:29;27.10;71.50
45969;DHT22;31676;40.444;-3.668;2022-09-14T09:54:28;27.10;71.50
45969;DHT22;31676;40.444;-3.668;2022-09-14T09:56:55;27.10;71.50
45969;DHT22;31676;40.444;-3.668;2022-09-14T09:59:22;27.10;71.40
45969;DHT22;31676;40.444;-3.668;2022-09-14T10:01:53;27.10;71.40
45969;DHT22;31676;40.444;-3.668;2022-09-14T10:04:20;27.10;71.40
45969;DHT22;31676;40.444;-3.668;2022-09-14T10:06:50;27.10;71.40
45969;DHT22;31676;40.444;-3.668;2022-09-14T10:09:18;27.20;71.50
45969;DHT22;31676;40.444;-3.668;2022-09-14T10:11:45;27.20;71.50
45969;DHT22;31676;40.444;-3.668;2022-09-14T10:17:27;27.20;71.40
45969;DHT22;31676;40.444;-3.668;2022-09-14T10:19:52;27.20;71.50
45969;DHT22;31676;40.444;-3.668;2022-09-14T10:24:53;27.20;71.40
45969;DHT22;31676;40.444;-3.668;2022-09-14T10:27:33;27.20;71.40
45969;DHT22;31676;40.444;-3.668;2022-09-14T10:30:01;27.20;71.40
45969;DHT22;31676;40.444;-3.668;2022-09-14T10:32:27;27.20;71.40
45969;DHT22;31676;40.444;-3.668;2022-09-14T10:34:54;27.20;71.30
45969;DHT22;31676;40.444;-3.668;2022-09-14T10:40:12;27.20;71.30
45969;DHT22;31676;40.444;-3.668;2022-09-14T10:45:26;27.20;71.30
45969;DHT22;31676;40.444;-3.668;2022-09-14T10:50:41;27.20;71.30
45969;DHT22;31676;40.444;-3.668;2022-09-14T10:58:17;27.20;71.20
45969;DHT22;31676;40.444;-3.668;2022-09-14T11:00:52;27.20;71.20
45969;DHT22;31676;40.444;-3.668;2022-09-14T11:05:46;27.30;71.20
45969;DHT22;31676;40.444;-3.668;2022-09-14T11:19:01;27.30;71.20
45969;DHT22;31676;40.444;-3.668;2022-09-14T11:21:42;27.30;71.20
45969;DHT22;31676;40.444;-3.668;2022-09-14T11:27:00;27.30;71.20
45969;DHT22;31676;40.444;-3.668;2022-09-14T11:29:33;27.40;71.80
45969;DHT22;31676;40.444;-3.668;2022-09-14T11:34:44;27.40;71.20
45969;DHT22;31676;40.444;-3.668;2022-09-14T11:37:13;27.40;71.20
45969;DHT22;31676;40.444;-3.668;2022-09-14T11:39:40;27.30;71.00
45969;DHT22;31676;40.444;-3.668;2022-09-14T11:52:08;27.40;71.10
45969;DHT22;31676;40.444;-3.668;2022-09-14T11:54:39;27.40;71.10
45969;DHT22;31676;40.444;-3.668;2022-09-14T11:57:05;27.40;71.10
45969;DHT22;31676;40.444;-3.668;2022-09-14T12:12:41;27.40;71.00
45969;DHT22;31676;40.444;-3.668;2022-09-14T12:17:51;27.40;71.00
45969;DHT22;31676;40.444;-3.668;2022-09-14T12:28:26;27.50;71.00
45969;DHT22;31676;40.444;-3.668;2022-09-14T12:36:06;27.50;71.00
45969;DHT22;31676;40.444;-3.668;2022-09-14T12:38:39;27.40;70.90
45969;DHT22;31676;40.444;-3.668;2022-09-14T12:46:09;27.50;71.00
45969;DHT22;31676;40.444;-3.668;2022-09-14T12:51:14;27.50;71.00
45969;DHT22;31676;40.444;-3.668;2022-09-14T12:53:44;27.50;71.00
45969;DHT22;31676;40.444;-3.668;2022-09-14T12:56:14;27.50;71.00
45969;DHT22;31676;40.444;-3.668;2022-09-14T13:04:02;27.50;71.00
45969;DHT22;31676;40.444;-3.668;2022-09-14T13:06:46;27.50;70.90
45969;DHT22;31676;40.444;-3.668;2022-09-14T13:09:21;27.50;71.00
45969;DHT22;31676;40.444;-3.668;2022-09-14T13:11:50;27.60;71.00
45969;DHT22;31676;40.444;-3.668;2022-09-14T13:14:17;27.50;71.00
45969;DHT22;31676;40.444;-3.668;2022-09-14T13:16:43;27.50;70.90
45969;DHT22;31676;40.444;-3.668;2022-09-14T13:19:27;27.50;70.90
45969;DHT22;31676;40.444;-3.668;2022-09-14T13:21:53;27.50;70.90
45969;DHT22;31676;40.444;-3.668;2022-09-14T13:24:23;27.50;70.90
45969;DHT22;31676;40.444;-3.668;2022-09-14T13:26:50;27.50;70.90
45969;DHT22;31676;40.444;-3.668;2022-09-14T13:29:16;27.50;70.90
45969;DHT22;31676;40.444;-3.668;2022-09-14T13:31:43;27.50;70.90
45969;DHT22;31676;40.444;-3.668;2022-09-14T13:37:04;27.50;70.90
45969;DHT22;31676;40.444;-3.668;2022-09-14T13:39:31;27.50;70.90
45969;DHT22;31676;40.444;-3.668;2022-09-14T13:41:58;27.50;70.90
45969;DHT22;31676;40.444;-3.668;2022-09-14T13:44:29;27.50;70.90
45969;DHT22;31676;40.444;-3.668;2022-09-14T13:46:56;27.50;70.90
45969;DHT22;31676;40.444;-3.668;2022-09-14T13:49:22;27.50;70.90
45969;DHT22;31676;40.444;-3.668;2022-09-14T13:51:48;27.50;70.90
45969;DHT22;31676;40.444;-3.668;2022-09-14T13:54:17;27.50;70.90
45969;DHT22;31676;40.444;-3.668;2022-09-14T13:56:44;27.60;71.00
45969;DHT22;31676;40.444;-3.668;2022-09-14T13:59:16;27.60;71.00
45969;DHT22;31676;40.444;-3.668;2022-09-14T14:01:48;27.50;70.90
45969;DHT22;31676;40.444;-3.668;2022-09-14T14:04:28;27.60;71.00
45969;DHT22;31676;40.444;-3.668;2022-09-14T14:07:14;27.50;70.90
45969;DHT22;31676;40.444;-3.668;2022-09-14T14:12:25;27.50;70.90
45969;DHT22;31676;40.444;-3.668;2022-09-14T14:14:58;27.50;70.90
45969;DHT22;31676;40.444;-3.668;2022-09-14T14:17:29;27.60;71.00
45969;DHT22;31676;40.444;-3.668;2022-09-14T14:20:39;27.60;71.00
45969;DHT22;31676;40.444;-3.668;2022-09-14T14:22:56;27.60;71.00
45969;DHT22;31676;40.444;-3.668;2022-09-14T14:25:30;27.60;71.00
45969;DHT22;31676;40.444;-3.668;2022-09-14T14:27:57;27.60;71.00
45969;DHT22;31676;40.444;-3.668;2022-09-14T14:30:24;27.60;71.00
45969;DHT22;31676;40.444;-3.668;2022-09-14T14:32:52;27.60;70.90
45969;DHT22;31676;40.444;-3.668;2022-09-14T14:35:19;27.60;71.00
45969;DHT22;31676;40.444;-3.668;2022-09-14T14:37:47;27.60;70.90
45969;DHT22;31676;40.444;-3.668;2022-09-14T14:40:13;27.60;71.00
45969;DHT22;31676;40.444;-3.668;2022-09-14T14:42:39;27.60;70.90
45969;DHT22;31676;40.444;-3.668;2022-09-14T14:45:05;27.60;70.90
45969;DHT22;31676;40.444;-3.668;2022-09-14T14:47:31;27.60;70.90
45969;DHT22;31676;40.444;-3.668;2022-09-14T14:49:58;27.60;70.90
45969;DHT22;31676;40.444;-3.668;2022-09-14T14:52:23;27.60;70.90
45969;DHT22;31676;40.444;-3.668;2022-09-14T14:54:49;27.60;70.90
45969;DHT22;31676;40.444;-3.668;2022-09-14T14:57:15;27.60;70.90
45969;DHT22;31676;40.444;-3.668;2022-09-14T14:59:40;27.60;70.90
45969;DHT22;31676;40.444;-3.668;2022-09-14T15:02:07;27.70;71.00
45969;DHT22;31676;40.444;-3.668;2022-09-14T15:04:33;27.70;71.00
45969;DHT22;31676;40.444;-3.668;2022-09-14T15:06:59;27.60;70.90
45969;DHT22;31676;40.444;-3.668;2022-09-14T15:09:25;27.60;70.90
45969;DHT22;31676;40.444;-3.668;2022-09-14T15:11:52;27.60;70.90
45969;DHT22;31676;40.444;-3.668;2022-09-14T15:14:21;27.70;70.90
45969;DHT22;31676;40.444;-3.668;2022-09-14T15:16:47;27.70;71.00
45969;DHT22;31676;40.444;-3.668;2022-09-14T15:19:12;27.70;70.90
45969;DHT22;31676;40.444;-3.668;2022-09-14T15:21:39;27.70;71.00
45969;DHT22;31676;40.444;-3.668;2022-09-14T15:24:05;27.70;70.90
45969;DHT22;31676;40.444;-3.668;2022-09-14T15:26:30;27.70;70.90
45969;DHT22;31676;40.444;-3.668;2022-09-14T15:28:57;27.70;70.90
45969;DHT22;31676;40.444;-3.668;2022-09-14T15:31:23;27.70;70.90
45969;DHT22;31676;40.444;-3.668;2022-09-14T15:33:49;27.70;70.90
45969;DHT22;31676;40.444;-3.668;2022-09-14T15:38:58;27.70;70.90
45969;DHT22;31676;40.444;-3.668;2022-09-14T15:41:24;27.70;70.90
45969;DHT22;31676;40.444;-3.668;2022-09-14T15:43:50;27.70;70.90
45969;DHT22;31676;40.444;-3.668;2022-09-14T15:46:15;27.80;70.90
45969;DHT22;31676;40.444;-3.668;2022-09-14T15:48:41;27.70;70.90
45969;DHT22;31676;40.444;-3.668;2022-09-14T15:51:08;27.70;70.90
45969;DHT22;31676;40.444;-3.668;2022-09-14T15:53:34;27.70;70.90
45969;DHT22;31676;40.444;-3.668;2022-09-14T15:56:01;27.70;70.90
45969;DHT22;31676;40.444;-3.668;2022-09-14T15:58:28;27.70;70.80
45969;DHT22;31676;40.444;-3.668;2022-09-14T16:00:54;27.70;70.90
45969;DHT22;31676;40.444;-3.668;2022-09-14T16:03:20;27.80;70.90
45969;DHT22;31676;40.444;-3.668;2022-09-14T16:05:45;27.70;70.80
45969;DHT22;31676;40.444;-3.668;2022-09-14T16:08:11;27.80;70.90
45969;DHT22;31676;40.444;-3.668;2022-09-14T16:10:37;27.80;70.90
45969;DHT22;31676;40.444;-3.668;2022-09-14T16:13:02;27.80;70.90
45969;DHT22;31676;40.444;-3.668;2022-09-14T16:15:28;27.80;70.90
45969;DHT22;31676;40.444;-3.668;2022-09-14T16:17:54;27.80;70.90
45969;DHT22;31676;40.444;-3.668;2022-09-14T16:20:20;27.80;70.90
45969;DHT22;31676;40.444;-3.668;2022-09-14T16:22:46;27.80;70.90
45969;DHT22;31676;40.444;-3.668;2022-09-14T16:25:12;27.80;70.80
45969;DHT22;31676;40.444;-3.668;2022-09-14T16:27:39;27.80;70.80
45969;DHT22;31676;40.444;-3.668;2022-09-14T16:30:05;27.80;70.80
45969;DHT22;31676;40.444;-3.668;2022-09-14T16:32:31;27.80;70.80
45969;DHT22;31676;40.444;-3.668;2022-09-14T16:34:57;27.80;70.80
45969;DHT22;31676;40.444;-3.668;2022-09-14T16:37:23;27.80;70.80
45969;DHT22;31676;40.444;-3.668;2022-09-14T16:39:48;27.80;70.70
45969;DHT22;31676;40.444;-3.668;2022-09-14T16:42:14;27.90;70.80
45969;DHT22;31676;40.444;-3.668;2022-09-14T16:44:40;27.90;70.80
45969;DHT22;31676;40.444;-3.668;2022-09-14T16:47:06;27.90;70.80
45969;DHT22;31676;40.444;-3.668;2022-09-14T16:49:31;27.90;70.80
45969;DHT22;31676;40.444;-3.668;2022-09-14T16:51:57;27.90;70.80
45969;DHT22;31676;40.444;-3.668;2022-09-14T16:54:26;27.90;70.80
45969;DHT22;31676;40.444;-3.668;2022-09-14T16:56:54;27.90;70.80
45969;DHT22;31676;40.444;-3.668;2022-09-14T16:59:21;27.90;70.80
45969;DHT22;31676;40.444;-3.668;2022-09-14T17:01:47;27.90;70.80
45969;DHT22;31676;40.444;-3.668;2022-09-14T17:04:14;27.90;70.80
45969;DHT22;31676;40.444;-3.668;2022-09-14T17:06:41;27.90;70.80
45969;DHT22;31676;40.444;-3.668;2022-09-14T17:09:08;27.90;70.80
45969;DHT22;31676;40.444;-3.668;2022-09-14T17:11:34;27.90;70.80
45969;DHT22;31676;40.444;-3.668;2022-09-14T17:14:01;27.90;70.80
45969;DHT22;31676;40.444;-3.668;2022-09-14T17:16:27;27.90;70.80
45969;DHT22;31676;40.444;-3.668;2022-09-14T17:18:56;27.90;70.80
45969;DHT22;31676;40.444;-3.668;2022-09-14T17:21:23;27.90;70.80
45969;DHT22;31676;40.444;-3.668;2022-09-14T17:23:49;27.90;70.70
45969;DHT22;31676;40.444;-3.668;2022-09-14T17:26:17;28.00;70.80
45969;DHT22;31676;40.444;-3.668;2022-09-14T17:28:43;27.90;70.80
45969;DHT22;31676;40.444;-3.668;2022-09-14T17:31:10;28.00;70.80
45969;DHT22;31676;40.444;-3.668;2022-09-14T17:33:37;28.00;70.80
45969;DHT22;31676;40.444;-3.668;2022-09-14T17:36:03;28.00;70.70
45969;DHT22;31676;40.444;-3.668;2022-09-14T17:38:31;28.00;70.70
45969;DHT22;31676;40.444;-3.668;2022-09-14T17:41:07;28.00;70.70
45969;DHT22;31676;40.444;-3.668;2022-09-14T17:43:33;28.00;70.70
45969;DHT22;31676;40.444;-3.668;2022-09-14T17:46:00;28.00;70.70
45969;DHT22;31676;40.444;-3.668;2022-09-14T17:48:26;28.00;70.70
45969;DHT22;31676;40.444;-3.668;2022-09-14T17:50:52;28.00;70.70
45969;DHT22;31676;40.444;-3.668;2022-09-14T17:53:18;28.00;70.70
45969;DHT22;31676;40.444;-3.668;2022-09-14T17:55:45;28.00;70.70
45969;DHT22;31676;40.444;-3.668;2022-09-14T17:58:11;28.00;70.70
45969;DHT22;31676;40.444;-3.668;2022-09-14T18:00:36;28.00;70.70
45969;DHT22;31676;40.444;-3.668;2022-09-14T18:03:02;28.00;70.70
45969;DHT22;31676;40.444;-3.668;2022-09-14T18:05:29;28.00;70.70
45969;DHT22;31676;40.444;-3.668;2022-09-14T18:07:56;28.00;70.70
45969;DHT22;31676;40.444;-3.668;2022-09-14T18:10:21;28.10;70.80
45969;DHT22;31676;40.444;-3.668;2022-09-14T18:12:47;28.10;70.70
45969;DHT22;31676;40.444;-3.668;2022-09-14T18:15:14;28.10;70.70
45969;DHT22;31676;40.444;-3.668;2022-09-14T18:17:40;28.10;70.70
45969;DHT22;31676;40.444;-3.668;2022-09-14T18:20:07;28.10;70.70
45969;DHT22;31676;40.444;-3.668;2022-09-14T18:22:34;28.10;70.70
45969;DHT22;31676;40.444;-3.668;2022-09-14T18:25:00;28.10;70.80
45969;DHT22;31676;40.444;-3.668;2022-09-14T18:27:25;28.10;70.70
45969;DHT22;31676;40.444;-3.668;2022-09-14T18:29:51;28.10;70.70
45969;DHT22;31676;40.444;-3.668;2022-09-14T18:32:17;28.10;70.70
45969;DHT22;31676;40.444;-3.668;2022-09-14T18:34:42;28.10;70.60
45969;DHT22;31676;40.444;-3.668;2022-09-14T18:37:08;28.10;70.60
45969;DHT22;31676;40.444;-3.668;2022-09-14T18:39:33;28.10;70.70
45969;DHT22;31676;40.444;-3.668;2022-09-14T18:42:00;28.10;70.60
45969;DHT22;31676;40.444;-3.668;2022-09-14T18:44:25;28.10;70.60
45969;DHT22;31676;40.444;-3.668;2022-09-14T18:46:51;28.10;70.60
45969;DHT22;31676;40.444;-3.668;2022-09-14T18:49:17;28.10;70.60
45969;DHT22;31676;40.444;-3.668;2022-09-14T18:51:43;28.10;70.60
45969;DHT22;31676;40.444;-3.668;2022-09-14T18:54:09;28.10;70.70
45969;DHT22;31676;40.444;-3.668;2022-09-14T18:56:35;28.10;70.70
45969;DHT22;31676;40.444;-3.668;2022-09-14T18:59:03;28.10;70.60
45969;DHT22;31676;40.444;-3.668;2022-09-14T19:01:29;28.10;70.60
45969;DHT22;31676;40.444;-3.668;2022-09-14T19:03:54;28.10;70.60
45969;DHT22;31676;40.444;-3.668;2022-09-14T19:06:20;28.10;70.60
45969;DHT22;31676;40.444;-3.668;2022-09-14T19:08:47;28.10;70.60
45969;DHT22;31676;40.444;-3.668;2022-09-14T19:11:19;28.10;70.70
45969;DHT22;31676;40.444;-3.668;2022-09-14T19:13:45;28.10;70.70
45969;DHT22;31676;40.444;-3.668;2022-09-14T19:16:12;28.10;70.70
45969;DHT22;31676;40.444;-3.668;2022-09-14T19:18:38;28.10;70.70
45969;DHT22;31676;40.444;-3.668;2022-09-14T19:21:05;28.10;70.70
45969;DHT22;31676;40.444;-3.668;2022-09-14T19:23:30;28.10;70.70
45969;DHT22;31676;40.444;-3.668;2022-09-14T19:26:00;28.10;70.70
45969;DHT22;31676;40.444;-3.668;2022-09-14T19:28:26;28.10;70.70
45969;DHT22;31676;40.444;-3.668;2022-09-14T19:30:51;28.10;70.70
45969;DHT22;31676;40.444;-3.668;2022-09-14T19:33:17;28.10;70.70
45969;DHT22;31676;40.444;-3.668;2022-09-14T19:35:43;28.10;70.70
45969;DHT22;31676;40.444;-3.668;2022-09-14T19:38:09;28.10;70.70
45969;DHT22;31676;40.444;-3.668;2022-09-14T19:40:34;28.10;70.70
45969;DHT22;31676;40.444;-3.668;2022-09-14T19:43:00;28.10;70.70
45969;DHT22;31676;40.444;-3.668;2022-09-14T19:45:25;28.10;70.70
45969;DHT22;31676;40.444;-3.668;2022-09-14T19:47:51;28.10;70.70
45969;DHT22;31676;40.444;-3.668;2022-09-14T19:50:17;28.10;70.80
45969;DHT22;31676;40.444;-3.668;2022-09-14T19:52:42;28.10;70.80
45969;DHT22;31676;40.444;-3.668;2022-09-14T19:55:08;28.10;70.80
45969;DHT22;31676;40.444;-3.668;2022-09-14T19:57:34;28.10;70.80
45969;DHT22;31676;40.444;-3.668;2022-09-14T20:00:03;28.00;70.70
45969;DHT22;31676;40.444;-3.668;2022-09-14T20:02:28;28.00;70.70
45969;DHT22;31676;40.444;-3.668;2022-09-14T20:04:54;28.00;70.70
45969;DHT22;31676;40.444;-3.668;2022-09-14T20:07:20;28.00;70.70
45969;DHT22;31676;40.444;-3.668;2022-09-14T20:09:45;28.10;70.80
45969;DHT22;31676;40.444;-3.668;2022-09-14T20:12:11;28.00;70.80
45969;DHT22;31676;40.444;-3.668;2022-09-14T20:14:37;28.00;70.80
45969;DHT22;31676;40.444;-3.668;2022-09-14T20:17:02;28.00;70.80
45969;DHT22;31676;40.444;-3.668;2022-09-14T20:19:28;28.00;70.80
45969;DHT22;31676;40.444;-3.668;2022-09-14T20:21:55;28.00;70.80
45969;DHT22;31676;40.444;-3.668;2022-09-14T20:24:22;28.00;70.80
45969;DHT22;31676;40.444;-3.668;2022-09-14T20:26:55;28.00;70.90
45969;DHT22;31676;40.444;-3.668;2022-09-14T20:29:22;28.00;70.90
45969;DHT22;31676;40.444;-3.668;2022-09-14T20:31:48;28.00;70.80
45969;DHT22;31676;40.444;-3.668;2022-09-14T20:34:14;28.00;70.90
45969;DHT22;31676;40.444;-3.668;2022-09-14T20:36:41;28.00;70.90
45969;DHT22;31676;40.444;-3.668;2022-09-14T20:39:07;28.00;70.90
45969;DHT22;31676;40.444;-3.668;2022-09-14T20:41:33;28.00;70.90
45969;DHT22;31676;40.444;-3.668;2022-09-14T20:43:59;28.00;70.90
45969;DHT22;31676;40.444;-3.668;2022-09-14T20:46:26;28.00;70.90
45969;DHT22;31676;40.444;-3.668;2022-09-14T20:48:52;28.00;70.90
45969;DHT22;31676;40.444;-3.668;2022-09-14T20:51:18;28.00;70.90
45969;DHT22;31676;40.444;-3.668;2022-09-14T20:53:44;28.00;70.90
45969;DHT22;31676;40.444;-3.668;2022-09-14T20:56:15;28.00;70.90
45969;DHT22;31676;40.444;-3.668;2022-09-14T20:58:41;28.00;70.90
45969;DHT22;31676;40.444;-3.668;2022-09-14T21:01:08;28.00;70.90
45969;DHT22;31676;40.444;-3.668;2022-09-14T21:03:35;28.00;70.90
45969;DHT22;31676;40.444;-3.668;2022-09-14T21:06:02;28.00;70.90
45969;DHT22;31676;40.444;-3.668;2022-09-14T21:08:28;28.00;70.90
45969;DHT22;31676;40.444;-3.668;2022-09-14T21:10:54;28.00;70.90
45969;DHT22;31676;40.444;-3.668;2022-09-14T21:13:20;28.00;70.90
45969;DHT22;31676;40.444;-3.668;2022-09-14T21:15:46;28.00;70.90
45969;DHT22;31676;40.444;-3.668;2022-09-14T21:18:11;28.00;70.90
45969;DHT22;31676;40.444;-3.668;2022-09-14T21:20:37;28.00;70.90
45969;DHT22;31676;40.444;-3.668;2022-09-14T21:23:03;28.00;71.00
45969;DHT22;31676;40.444;-3.668;2022-09-14T21:25:29;28.00;71.00
45969;DHT22;31676;40.444;-3.668;2022-09-14T21:27:55;28.00;71.00
45969;DHT22;31676;40.444;-3.668;2022-09-14T21:30:21;28.00;71.00
45969;DHT22;31676;40.444;-3.668;2022-09-14T21:32:47;28.00;71.00
45969;DHT22;31676;40.444;-3.668;2022-09-14T21:35:14;28.00;71.00
45969;DHT22;31676;40.444;-3.668;2022-09-14T21:37:43;28.00;71.00
45969;DHT22;31676;40.444;-3.668;2022-09-14T21:40:09;28.00;71.00
45969;DHT22;31676;40.444;-3.668;2022-09-14T21:42:35;28.00;71.00
45969;DHT22;31676;40.444;-3.668;2022-09-14T21:45:00;27.90;70.90
45969;DHT22;31676;40.444;-3.668;2022-09-14T21:47:26;28.00;71.00
45969;DHT22;31676;40.444;-3.668;2022-09-14T21:49:52;27.90;70.90
45969;DHT22;31676;40.444;-3.668;2022-09-14T21:52:17;28.00;71.00
45969;DHT22;31676;40.444;-3.668;2022-09-14T21:54:43;27.90;70.90
45969;DHT22;31676;40.444;-3.668;2022-09-14T21:57:09;27.90;71.60
45969;DHT22;31676;40.444;-3.668;2022-09-14T21:59:35;27.90;71.00
45969;DHT22;31676;40.444;-3.668;2022-09-14T22:02:01;27.90;71.00